Latest Coastal Weather Observations for Smithton

IDT60701

Issued at 11:12 pm EST Tuesday 30 August 2016 (issued every 10 minutes, with the page automatically refreshed every 10 minutes)

About coastal observations | Map of coastal stations | Coastal observations for TAS | Marine services | Other Formats
Station Details ID: 091292 Name: SMITHTON AERODROME Lat: -40.83 Lon: 145.08 Height: 7.5 m
Data from the previous 72 hours. | See also: Recent months at Smithton
Date/Time
EST
Temp
°C
Wind Pressure Rain since
9am
mm
Weather Cloud Vis
km
Sea
Height
m
Swell
Dir  Spd
kts
Gust
kts
hPa Trend Height
m
Period
s
Dir
30/11:00pm 11.1 ENE 12 15 1012.5 - 13.6 - - - - - - -
30/10:30pm 11.2 ENE 14 19 1012.8 - 13.4 - - - - - - -
30/10:00pm 11.2 ENE 14 20 1013.2 - 12.0 - - - - - - -
30/09:30pm 11.3 ENE 15 19 1013.5 - 10.6 - - - - - - -
30/09:00pm 11.3 ENE 12 16 1013.8 - 8.6 - - - - - - -
30/08:30pm 11.0 NE 11 14 1014.1 - 7.2 - - - - - - -
30/08:00pm 10.9 ENE 14 19 1013.9 - 6.4 - - - - - - -
30/07:30pm 11.0 E 11 15 1014.0 - 5.8 - - - - - - -
30/07:00pm 11.0 ENE 10 14 1014.3 - 4.2 - - - - - - -
30/06:30pm 11.1 ENE 11 15 1014.3 - 2.4 - - - - - - -
30/06:00pm 11.3 ENE 11 15 1014.4 - 1.2 - - - - - - -
30/05:30pm 11.9 ENE 12 16 1014.7 - 0.0 - - - - - - -
30/05:00pm 12.1 ENE 14 19 1015.1 - 0.0 - - - - - - -
30/04:30pm 12.3 ENE 12 16 1015.1 - 0.0 - - - - - - -
30/04:00pm 12.4 ENE 14 18 1015.6 - 0.0 - - - - - - -
30/03:30pm 12.6 ENE 17 22 1015.9 - 0.0 - - - - - - -
30/03:00pm 12.7 ENE 16 22 1016.4 - 0.0 - - - - - - -
30/02:34pm 12.9 E 16 26 1016.3 - 0.0 - - - - - - -
30/02:30pm 12.8 E 17 24 1016.2 - 0.0 - - - - - - -
30/02:00pm 12.6 E 17 23 1017.0 - 0.0 - - - - - - -
30/01:30pm 12.2 E 16 22 1017.5 - 0.0 - - - - - - -
30/01:00pm 11.9 ENE 16 23 1018.0 - 0.0 - - - - - - -
30/12:30pm 12.0 ENE 15 22 1018.7 - 0.0 - - - - - - -
30/12:00pm 12.1 ENE 18 24 1019.2 - 0.0 - - - - - - -
30/11:30am 11.6 ENE 17 24 1019.5 - 0.0 - - - - - - -
30/11:00am 11.6 E 17 23 1019.3 - 0.0 - - - - - - -
30/10:30am 11.3 E 18 25 1019.7 - 0.0 - - - - - - -
30/10:00am 11.2 E 18 25 1020.2 - 0.0 - - - - - - -
30/09:30am 11.0 E 15 21 1020.4 - 0.0 - - - - - - -
30/09:00am 10.4 E 14 20 1020.9 - 0.0 - - - - - - -
30/08:30am 9.8 E 13 19 1021.5 - 0.0 - - - - - - -
30/08:00am 9.5 E 15 19 1021.5 - 0.0 - - - - - - -
30/07:30am 9.1 E 11 16 1021.9 - 0.0 - - - - - - -
30/07:00am 9.0 E 13 16 1022.0 - 0.0 - - - - - - -
30/06:30am 8.9 E 13 19 1021.8 - 0.0 - - - - - - -
30/06:00am 8.9 E 14 19 1021.7 - 0.0 - - - - - - -
30/05:30am 9.1 E 13 19 1021.8 - 0.0 - - - - - - -
30/05:00am 8.7 E 11 15 1022.1 - 0.0 - - - - - - -
30/04:30am 8.4 E 8 11 1022.6 - 0.0 - - - - - - -
30/04:00am 8.6 E 8 11 1022.5 - 0.0 - - - - - - -
30/03:30am 8.8 E 8 11 1022.7 - 0.0 - - - - - - -
30/03:00am 9.3 E 9 12 1022.6 - 0.0 - - - - - - -
30/02:30am 9.6 E 10 14 1022.2 - 0.0 - - - - - - -
30/02:00am 9.5 E 10 15 1022.6 - 0.0 - - - - - - -
30/01:30am 9.2 E 10 13 1022.8 - 0.0 - - - - - - -
30/01:00am 8.9 E 9 13 1022.8 - 0.0 - - - - - - -
30/12:30am 7.5 E 7 8 1023.2 - 0.0 - - - - - - -
30/12:00am 7.6 E 9 13 1023.5 - 0.0 - - - - - - -
 
Date/Time
EST
Temp
°C
Wind Pressure Rain since
9am
mm
Weather Cloud Vis
km
Sea
Height
m
Swell
Dir  Spd
kts
Gust
kts
hPa Trend Height
m
Period
s
Dir
29/11:30pm 6.6 ESE 5 8 1023.9 - 0.0 - - - - - - -
29/11:00pm 6.8 E 3 5 1024.2 - 0.0 - - - - - - -
29/10:30pm 7.1 E 7 9 1023.9 - 0.0 - - - - - - -
29/10:00pm 7.6 E 9 11 1023.6 - 0.0 - - - - - - -
29/09:30pm 7.0 E 8 9 1024.2 - 0.0 - - - - - - -
29/09:00pm 7.2 ENE 6 7 1024.4 - 0.0 - - - - - - -
29/08:30pm 6.9 E 6 8 1023.7 - 0.0 - - - - - - -
29/08:00pm 7.1 E 3 5 1023.6 - 0.0 - - - - - - -
29/07:30pm 7.2 E 4 5 1023.5 - 0.0 - - - - - - -
29/07:00pm 7.4 E 5 6 1023.4 - 0.0 - - - - - - -
29/06:30pm 8.1 ENE 5 6 1023.3 - 0.0 - - - - - - -
29/06:00pm 8.7 ENE 5 6 1023.3 - 0.0 - - - - - - -
29/05:30pm 10.3 ENE 6 8 1023.2 - 0.0 - - - - - - -
29/05:00pm 11.4 ENE 7 9 1023.0 - 0.0 - - - - - - -
29/04:30pm 11.7 NE 7 9 1023.0 - 0.0 - - - - - - -
29/04:00pm 12.0 NNE 8 10 1023.1 - 0.0 - - - - - - -
29/03:30pm 12.6 NNE 7 9 1023.0 - 0.0 - - - - - - -
29/03:00pm 12.2 NNE 8 11 1023.0 - 0.0 - - - - - - -
29/02:30pm 12.8 NNE 7 10 1023.0 - 0.0 - - - - - - -
29/02:00pm 12.8 NNE 7 9 1023.0 - 0.0 - - - - - - -
29/01:30pm 12.7 NNE 7 10 1023.1 - 0.0 - - - - - - -
29/01:00pm 12.7 NNE 7 10 1023.6 - 0.0 - - - - - - -
29/12:30pm 12.3 NE 7 9 1024.0 - 0.0 - - - - - - -
29/12:00pm 11.9 N 5 7 1024.2 - 0.0 - - - - - - -
29/11:30am 12.0 NNE 5 7 1024.3 - 0.0 - - - - - - -
29/11:00am 10.1 S 4 5 1024.3 - 0.0 - - - - - - -
29/10:30am 8.3 S 2 4 1024.5 - 0.0 - - - - - - -
29/10:00am 7.0 S 4 5 1024.6 - 0.0 - - - - - - -
29/09:30am 5.2 S 5 6 1025.0 - 0.0 - - - - - - -
29/09:00am 3.9 S 4 5 1025.0 - 0.0 - - - - - - -
29/08:30am 3.3 S 4 5 1024.9 - 0.0 - - - - - - -
29/08:00am 1.9 S 4 5 1024.7 - 0.0 - - - - - - -
29/07:30am 0.8 S 4 5 1024.4 - 0.0 - - - - - - -
29/07:00am 0.9 S 5 6 1024.0 - 0.0 - - - - - - -
29/06:30am 0.1 S 5 6 1023.8 - 0.0 - - - - - - -
29/06:00am 0.0 S 4 5 1023.6 - 0.0 - - - - - - -
29/05:30am 0.4 S 4 5 1023.5 - 0.0 - - - - - - -
29/05:00am 0.4 S 4 5 1023.1 - 0.0 - - - - - - -
29/04:30am 0.3 S 5 5 1022.8 - 0.0 - - - - - - -
29/04:00am 0.9 S 6 7 1022.9 - 0.0 - - - - - - -
29/03:30am 0.5 S 5 6 1022.8 - 0.0 - - - - - - -
29/03:00am 1.1 S 5 7 1022.8 - 0.0 - - - - - - -
29/02:30am 0.5 S 5 5 1023.0 - 0.0 - - - - - - -
29/02:00am 0.7 S 4 5 1023.1 - 0.0 - - - - - - -
29/01:30am 1.8 S 6 8 1023.0 - 0.0 - - - - - - -
29/01:00am 0.9 SSW 6 6 1023.2 - 0.0 - - - - - - -
29/12:30am 1.3 SSW 5 6 1022.8 - 0.0 - - - - - - -
29/12:00am 1.3 SSW 6 7 1022.4 - 0.0 - - - - - - -
 
Date/Time
EST
Temp
°C
Wind Pressure Rain since
9am
mm
Weather Cloud Vis
km
Sea
Height
m
Swell
Dir  Spd
kts
Gust
kts
hPa Trend Height
m
Period
s
Dir
28/11:30pm 1.3 CALM 0 0 1022.5 - 0.0 - - - - - - -
28/11:00pm 1.8 SSW 2 4 1022.3 - 0.0 - - - - - - -
28/10:30pm 2.4 SSW 1 4 1022.3 - 0.0 - - - - - - -
28/10:00pm 2.5 SSW 4 5 1022.2 - 0.0 - - - - - - -
28/09:30pm 3.1 SSW 4 5 1021.9 - 0.0 - - - - - - -
28/09:00pm 3.0 SSW 5 6 1021.3 - 0.0 - - - - - - -
28/08:30pm 4.4 SSW 5 7 1021.1 - 0.0 - - - - - - -
28/08:00pm 4.9 SSW 4 5 1021.0 - 0.0 - - - - - - -
28/07:30pm 4.9 SW 5 6 1020.8 - 0.0 - - - - - - -
28/07:00pm 5.6 SW 5 6 1020.5 - 0.0 - - - - - - -
28/06:30pm 6.1 WSW 7 8 1020.3 - 0.0 - - - - - - -
28/06:00pm 7.0 WSW 9 10 1020.1 - 0.0 - - - - - - -
28/05:30pm 8.7 WSW 8 10 1019.6 - 0.0 - - - - - - -
28/05:00pm 9.6 WSW 9 11 1019.3 - 0.0 - - - - - - -
28/04:30pm 10.8 WSW 10 14 1019.0 - 0.0 - - - - - - -
28/04:00pm 11.3 SW 11 15 1019.0 - 0.0 - - - - - - -
28/03:30pm 11.3 SW 11 14 1018.9 - 0.0 - - - - - - -
28/03:00pm 11.6 W 11 14 1018.7 - 0.0 - - - - - - -
28/02:30pm 11.6 W 11 14 1018.5 - 0.0 - - - - - - -
28/02:00pm 11.8 WSW 9 15 1018.5 - 0.0 - - - - - - -
28/01:30pm 11.8 W 10 14 1018.7 - 0.0 - - - - - - -
28/01:00pm 10.8 SSW 11 14 1018.9 - 0.0 - - - - - - -
28/12:30pm 11.9 W 13 15 1019.2 - 0.0 - - - - - - -
28/12:00pm 11.3 WSW 11 15 1019.0 - 0.0 - - - - - - -
28/11:30am 10.7 SW 11 16 1019.0 - 0.0 - - - - - - -
28/11:00am 11.0 SW 14 19 1019.3 - 0.0 - - - - - - -
28/10:30am 10.4 SW 12 17 1019.3 - 0.0 - - - - - - -
28/10:00am 9.8 SSW 14 18 1018.9 - 0.0 - - - - - - -
28/09:30am 9.5 SW 9 12 1018.9 - 0.0 - - - - - - -
28/09:00am 8.7 W 8 11 1018.7 - 9.8 - - - - - - -
28/08:30am 7.5 WSW 5 6 1018.4 - 9.8 - - - - - - -
28/08:00am 5.8 SW 3 3 1018.1 - 9.8 - - - - - - -
28/07:30am 4.1 W 5 6 1017.6 - 9.8 - - - - - - -
28/07:00am 4.1 WSW 3 5 1017.1 - 9.8 - - - - - - -
28/06:30am 4.4 SW 3 4 1016.5 - 9.8 - - - - - - -
28/06:00am 4.7 WSW 4 6 1015.9 - 9.8 - - - - - - -
28/05:30am 4.9 WSW 7 8 1015.3 - 9.8 - - - - - - -
28/05:00am 5.8 WSW 8 10 1014.6 - 9.8 - - - - - - -
28/04:30am 6.1 WSW 9 10 1014.2 - 9.8 - - - - - - -
28/04:00am 6.5 WSW 10 12 1013.8 - 9.8 - - - - - - -
28/03:30am 7.1 SW 12 16 1013.5 - 9.8 - - - - - - -
28/03:00am 7.8 SW 12 19 1013.3 - 9.8 - - - - - - -
28/02:30am 8.5 SW 13 16 1012.8 - 9.8 - - - - - - -
28/02:00am 9.0 WSW 13 17 1012.3 - 9.8 - - - - - - -
28/01:30am 9.5 WSW 14 18 1012.1 - 9.8 - - - - - - -
28/01:00am 9.7 WSW 15 19 1011.6 - 9.8 - - - - - - -
28/12:30am 9.6 W 12 17 1011.4 - 9.4 - - - - - - -
28/12:00am 9.5 W 15 27 1011.3 - 9.2 - - - - - - -
 
Date/Time
EST
Temp
°C
Wind Pressure Rain since
9am
mm
Weather Cloud Vis
km
Sea
Height
m
Swell
Dir  Spd
kts
Gust
kts
hPa Trend Height
m
Period
s
Dir
27/11:39pm 9.9 W 27 39 1011.7 - 6.8 - - - - - - -
27/11:38pm 11.4 W 24 29 1011.7 - 6.2 - - - - - - -
27/11:30pm 11.8 NW 19 26 1010.6 - 4.2 - - - - - - -

Other Formats:

Comma delimited format used in spreadsheet applications
http://www.bom.gov.au/fwo/IDT60701/IDT60701.94953.axf

JavaScript Object Notation format (JSON) in row-major order
http://www.bom.gov.au/fwo/IDT60701/IDT60701.94953.json